sensor_id;sensor_type;location;lat;lon;timestamp;temperature;humidity
31263;DHT22;17892;52.080;9.006;2023-05-10T00:01:23;17.10;97.80
31263;DHT22;17892;52.080;9.006;2023-05-10T00:03:49;17.10;98.00
31263;DHT22;17892;52.080;9.006;2023-05-10T00:06:15;17.10;98.00
31263;DHT22;17892;52.080;9.006;2023-05-10T00:08:40;17.10;98.00
31263;DHT22;17892;52.080;9.006;2023-05-10T00:11:06;17.00;98.20
31263;DHT22;17892;52.080;9.006;2023-05-10T00:13:32;17.00;98.20
31263;DHT22;17892;52.080;9.006;2023-05-10T00:15:58;17.00;98.30
31263;DHT22;17892;52.080;9.006;2023-05-10T00:18:23;17.00;98.50
31263;DHT22;17892;52.080;9.006;2023-05-10T00:20:49;17.00;99.00
31263;DHT22;17892;52.080;9.006;2023-05-10T00:23:15;17.00;98.60
31263;DHT22;17892;52.080;9.006;2023-05-10T00:25:41;16.90;98.60
31263;DHT22;17892;52.080;9.006;2023-05-10T00:28:06;16.90;98.60
31263;DHT22;17892;52.080;9.006;2023-05-10T00:30:32;16.90;98.70
31263;DHT22;17892;52.080;9.006;2023-05-10T00:32:57;16.90;98.90
31263;DHT22;17892;52.080;9.006;2023-05-10T00:35:23;16.90;99.20
31263;DHT22;17892;52.080;9.006;2023-05-10T00:37:49;16.90;99.30
31263;DHT22;17892;52.080;9.006;2023-05-10T00:40:15;16.90;99.30
31263;DHT22;17892;52.080;9.006;2023-05-10T00:42:40;16.90;99.50
31263;DHT22;17892;52.080;9.006;2023-05-10T00:45:06;16.80;99.60
31263;DHT22;17892;52.080;9.006;2023-05-10T00:47:32;16.80;99.70
31263;DHT22;17892;52.080;9.006;2023-05-10T00:49:59;16.80;99.80
31263;DHT22;17892;52.080;9.006;2023-05-10T00:52:29;16.80;99.90
31263;DHT22;17892;52.080;9.006;2023-05-10T00:54:55;16.80;99.90
31263;DHT22;17892;52.080;9.006;2023-05-10T00:57:22;16.80;99.90
31263;DHT22;17892;52.080;9.006;2023-05-10T00:59:48;16.80;99.90
31263;DHT22;17892;52.080;9.006;2023-05-10T01:02:14;16.80;99.90
31263;DHT22;17892;52.080;9.006;2023-05-10T01:04:40;16.80;99.90
31263;DHT22;17892;52.080;9.006;2023-05-10T01:07:06;16.80;99.90
31263;DHT22;17892;52.080;9.006;2023-05-10T01:09:32;16.80;99.90
31263;DHT22;17892;52.080;9.006;2023-05-10T01:11:58;16.80;99.90
31263;DHT22;17892;52.080;9.006;2023-05-10T01:14:25;16.80;99.90
31263;DHT22;17892;52.080;9.006;2023-05-10T01:16:52;16.80;99.90
31263;DHT22;17892;52.080;9.006;2023-05-10T01:19:29;16.80;99.90
31263;DHT22;17892;52.080;9.006;2023-05-10T01:34:29;16.90;99.90
31263;DHT22;17892;52.080;9.006;2023-05-10T01:37:19;16.80;99.90
31263;DHT22;17892;52.080;9.006;2023-05-10T01:39:50;16.80;99.90
31263;DHT22;17892;52.080;9.006;2023-05-10T01:42:25;16.80;99.90
31263;DHT22;17892;52.080;9.006;2023-05-10T01:45:00;16.80;99.90
31263;DHT22;17892;52.080;9.006;2023-05-10T01:47:42;16.70;99.90
31263;DHT22;17892;52.080;9.006;2023-05-10T01:50:18;16.80;99.90
31263;DHT22;17892;52.080;9.006;2023-05-10T01:52:49;16.70;99.90
31263;DHT22;17892;52.080;9.006;2023-05-10T01:55:20;16.70;99.90
31263;DHT22;17892;52.080;9.006;2023-05-10T01:57:48;16.70;99.90
31263;DHT22;17892;52.080;9.006;2023-05-10T02:00:17;16.70;99.90
31263;DHT22;17892;52.080;9.006;2023-05-10T02:02:46;16.70;99.90
31263;DHT22;17892;52.080;9.006;2023-05-10T02:05:14;16.70;99.90
31263;DHT22;17892;52.080;9.006;2023-05-10T02:07:40;16.70;99.90
31263;DHT22;17892;52.080;9.006;2023-05-10T02:10:09;16.70;99.90
31263;DHT22;17892;52.080;9.006;2023-05-10T02:12:37;16.60;99.90
31263;DHT22;17892;52.080;9.006;2023-05-10T02:15:07;16.60;99.90
31263;DHT22;17892;52.080;9.006;2023-05-10T02:17:35;16.60;99.90
31263;DHT22;17892;52.080;9.006;2023-05-10T02:20:02;16.60;99.90
31263;DHT22;17892;52.080;9.006;2023-05-10T02:22:29;16.50;99.90
31263;DHT22;17892;52.080;9.006;2023-05-10T02:24:55;16.50;99.90
31263;DHT22;17892;52.080;9.006;2023-05-10T02:27:24;16.60;99.90
31263;DHT22;17892;52.080;9.006;2023-05-10T02:29:51;16.50;99.90
31263;DHT22;17892;52.080;9.006;2023-05-10T02:32:18;16.50;99.90
31263;DHT22;17892;52.080;9.006;2023-05-10T02:34:45;16.50;99.90
31263;DHT22;17892;52.080;9.006;2023-05-10T02:37:14;16.60;99.90
31263;DHT22;17892;52.080;9.006;2023-05-10T02:39:41;16.60;99.90
31263;DHT22;17892;52.080;9.006;2023-05-10T02:42:13;16.60;99.90
31263;DHT22;17892;52.080;9.006;2023-05-10T02:44:42;16.60;99.90
31263;DHT22;17892;52.080;9.006;2023-05-10T02:47:08;16.60;99.90
31263;DHT22;17892;52.080;9.006;2023-05-10T02:49:34;16.60;99.90
31263;DHT22;17892;52.080;9.006;2023-05-10T02:52:01;16.60;99.90
31263;DHT22;17892;52.080;9.006;2023-05-10T02:54:33;16.60;99.90
31263;DHT22;17892;52.080;9.006;2023-05-10T02:57:05;16.60;99.90
31263;DHT22;17892;52.080;9.006;2023-05-10T02:59:31;16.60;99.90
31263;DHT22;17892;52.080;9.006;2023-05-10T03:01:59;16.60;99.90
31263;DHT22;17892;52.080;9.006;2023-05-10T03:04:25;16.60;99.90
31263;DHT22;17892;52.080;9.006;2023-05-10T03:06:51;16.50;99.90
31263;DHT22;17892;52.080;9.006;2023-05-10T03:09:18;16.50;99.90
31263;DHT22;17892;52.080;9.006;2023-05-10T03:14:30;16.50;99.90
31263;DHT22;17892;52.080;9.006;2023-05-10T03:17:15;16.60;99.90
31263;DHT22;17892;52.080;9.006;2023-05-10T03:19:49;16.50;99.90
31263;DHT22;17892;52.080;9.006;2023-05-10T03:22:27;16.50;99.90
31263;DHT22;17892;52.080;9.006;2023-05-10T03:25:07;16.40;99.90
31263;DHT22;17892;52.080;9.006;2023-05-10T03:27:35;16.30;99.90
31263;DHT22;17892;52.080;9.006;2023-05-10T03:30:02;16.20;99.90
31263;DHT22;17892;52.080;9.006;2023-05-10T03:32:29;16.10;99.90
31263;DHT22;17892;52.080;9.006;2023-05-10T03:34:57;16.00;99.90
31263;DHT22;17892;52.080;9.006;2023-05-10T03:37:22;15.80;99.90
31263;DHT22;17892;52.080;9.006;2023-05-10T03:39:48;15.70;99.90
31263;DHT22;17892;52.080;9.006;2023-05-10T03:42:13;15.70;99.90
31263;DHT22;17892;52.080;9.006;2023-05-10T03:44:40;15.60;99.90
31263;DHT22;17892;52.080;9.006;2023-05-10T03:47:05;15.50;99.90
31263;DHT22;17892;52.080;9.006;2023-05-10T03:49:31;15.50;99.90
31263;DHT22;17892;52.080;9.006;2023-05-10T03:51:57;15.50;99.90
31263;DHT22;17892;52.080;9.006;2023-05-10T03:54:23;15.50;99.90
31263;DHT22;17892;52.080;9.006;2023-05-10T03:56:48;15.50;99.90
31263;DHT22;17892;52.080;9.006;2023-05-10T03:59:14;15.40;99.90
31263;DHT22;17892;52.080;9.006;2023-05-10T04:01:40;15.40;99.90
31263;DHT22;17892;52.080;9.006;2023-05-10T04:04:05;15.40;99.90
31263;DHT22;17892;52.080;9.006;2023-05-10T04:06:31;15.30;99.90
31263;DHT22;17892;52.080;9.006;2023-05-10T04:08:57;15.30;99.90
31263;DHT22;17892;52.080;9.006;2023-05-10T04:11:25;15.40;99.90
31263;DHT22;17892;52.080;9.006;2023-05-10T04:13:50;15.50;99.90
31263;DHT22;17892;52.080;9.006;2023-05-10T04:16:16;15.40;99.90
31263;DHT22;17892;52.080;9.006;2023-05-10T04:18:42;15.40;99.90
31263;DHT22;17892;52.080;9.006;2023-05-10T04:21:11;15.40;99.90
31263;DHT22;17892;52.080;9.006;2023-05-10T04:23:38;15.40;99.90
31263;DHT22;17892;52.080;9.006;2023-05-10T04:26:04;15.40;99.90
31263;DHT22;17892;52.080;9.006;2023-05-10T04:28:30;15.40;99.90
31263;DHT22;17892;52.080;9.006;2023-05-10T04:31:07;15.40;99.90
31263;DHT22;17892;52.080;9.006;2023-05-10T04:33:34;15.40;99.90
31263;DHT22;17892;52.080;9.006;2023-05-10T04:36:00;15.40;99.90
31263;DHT22;17892;52.080;9.006;2023-05-10T04:38:27;15.50;99.90
31263;DHT22;17892;52.080;9.006;2023-05-10T04:40:53;15.40;99.90
31263;DHT22;17892;52.080;9.006;2023-05-10T04:43:19;15.50;99.90
31263;DHT22;17892;52.080;9.006;2023-05-10T04:45:45;15.40;99.90
31263;DHT22;17892;52.080;9.006;2023-05-10T04:48:11;15.40;99.90
31263;DHT22;17892;52.080;9.006;2023-05-10T04:50:36;15.40;99.90
31263;DHT22;17892;52.080;9.006;2023-05-10T04:53:02;15.40;99.90
31263;DHT22;17892;52.080;9.006;2023-05-10T04:55:28;15.40;99.90
31263;DHT22;17892;52.080;9.006;2023-05-10T04:57:53;15.40;99.90
31263;DHT22;17892;52.080;9.006;2023-05-10T05:00:22;15.40;99.90
31263;DHT22;17892;52.080;9.006;2023-05-10T05:02:48;15.40;99.90
31263;DHT22;17892;52.080;9.006;2023-05-10T05:05:13;15.40;99.90
31263;DHT22;17892;52.080;9.006;2023-05-10T05:07:39;15.40;99.90
31263;DHT22;17892;52.080;9.006;2023-05-10T05:10:06;15.40;99.90
31263;DHT22;17892;52.080;9.006;2023-05-10T05:12:33;15.40;99.90
31263;DHT22;17892;52.080;9.006;2023-05-10T05:14:58;15.40;99.90
31263;DHT22;17892;52.080;9.006;2023-05-10T05:17:24;15.40;99.90
31263;DHT22;17892;52.080;9.006;2023-05-10T05:19:49;15.50;99.90
31263;DHT22;17892;52.080;9.006;2023-05-10T05:22:15;15.40;99.90
31263;DHT22;17892;52.080;9.006;2023-05-10T05:24:41;15.40;99.90
31263;DHT22;17892;52.080;9.006;2023-05-10T05:27:07;15.40;99.90
31263;DHT22;17892;52.080;9.006;2023-05-10T05:29:33;15.40;99.90
31263;DHT22;17892;52.080;9.006;2023-05-10T05:31:59;15.40;99.90
31263;DHT22;17892;52.080;9.006;2023-05-10T05:34:24;15.30;99.90
31263;DHT22;17892;52.080;9.006;2023-05-10T05:36:51;15.30;99.90
31263;DHT22;17892;52.080;9.006;2023-05-10T05:39:17;15.30;99.90
31263;DHT22;17892;52.080;9.006;2023-05-10T05:41:42;15.20;99.90
31263;DHT22;17892;52.080;9.006;2023-05-10T05:44:08;15.10;99.90
31263;DHT22;17892;52.080;9.006;2023-05-10T05:46:34;15.10;99.90
31263;DHT22;17892;52.080;9.006;2023-05-10T05:49:00;15.00;99.90
31263;DHT22;17892;52.080;9.006;2023-05-10T05:51:25;15.00;99.90
31263;DHT22;17892;52.080;9.006;2023-05-10T05:53:51;14.90;99.90
31263;DHT22;17892;52.080;9.006;2023-05-10T05:56:17;14.90;99.90
31263;DHT22;17892;52.080;9.006;2023-05-10T05:58:49;14.80;99.90
31263;DHT22;17892;52.080;9.006;2023-05-10T06:01:15;14.80;99.90
31263;DHT22;17892;52.080;9.006;2023-05-10T06:03:41;14.90;99.90
31263;DHT22;17892;52.080;9.006;2023-05-10T06:06:07;14.80;99.90
31263;DHT22;17892;52.080;9.006;2023-05-10T06:08:33;14.90;99.90
31263;DHT22;17892;52.080;9.006;2023-05-10T06:10:59;14.90;99.90
31263;DHT22;17892;52.080;9.006;2023-05-10T06:13:25;14.90;99.90
31263;DHT22;17892;52.080;9.006;2023-05-10T06:15:57;14.90;99.90
31263;DHT22;17892;52.080;9.006;2023-05-10T06:18:24;14.90;99.90
31263;DHT22;17892;52.080;9.006;2023-05-10T06:20:49;14.90;99.90
31263;DHT22;17892;52.080;9.006;2023-05-10T06:23:15;14.90;99.90
31263;DHT22;17892;52.080;9.006;2023-05-10T06:25:41;14.90;99.90
31263;DHT22;17892;52.080;9.006;2023-05-10T06:28:06;15.00;99.90
31263;DHT22;17892;52.080;9.006;2023-05-10T06:30:32;15.00;99.90
31263;DHT22;17892;52.080;9.006;2023-05-10T06:32:58;15.00;99.90
31263;DHT22;17892;52.080;9.006;2023-05-10T06:35:23;15.00;99.90
31263;DHT22;17892;52.080;9.006;2023-05-10T06:37:49;15.00;99.90
31263;DHT22;17892;52.080;9.006;2023-05-10T06:40:16;15.00;99.90
31263;DHT22;17892;52.080;9.006;2023-05-10T06:42:42;15.00;99.90
31263;DHT22;17892;52.080;9.006;2023-05-10T06:45:08;15.10;99.90
31263;DHT22;17892;52.080;9.006;2023-05-10T06:47:34;15.10;99.90
31263;DHT22;17892;52.080;9.006;2023-05-10T06:50:00;15.10;99.90
31263;DHT22;17892;52.080;9.006;2023-05-10T06:52:25;15.10;99.90
31263;DHT22;17892;52.080;9.006;2023-05-10T06:54:51;15.10;99.90
31263;DHT22;17892;52.080;9.006;2023-05-10T06:57:17;15.10;99.90
31263;DHT22;17892;52.080;9.006;2023-05-10T06:59:43;15.10;99.90
31263;DHT22;17892;52.080;9.006;2023-05-10T07:02:09;15.10;99.90
31263;DHT22;17892;52.080;9.006;2023-05-10T07:04:35;15.10;99.90
31263;DHT22;17892;52.080;9.006;2023-05-10T07:07:01;15.10;99.90
31263;DHT22;17892;52.080;9.006;2023-05-10T07:09:26;15.10;99.90
31263;DHT22;17892;52.080;9.006;2023-05-10T07:11:52;15.10;99.90
31263;DHT22;17892;52.080;9.006;2023-05-10T07:14:18;15.00;99.90
31263;DHT22;17892;52.080;9.006;2023-05-10T07:16:43;15.00;99.90
31263;DHT22;17892;52.080;9.006;2023-05-10T07:19:09;15.00;99.90
31263;DHT22;17892;52.080;9.006;2023-05-10T07:21:36;15.00;99.90
31263;DHT22;17892;52.080;9.006;2023-05-10T07:24:01;15.00;99.90
31263;DHT22;17892;52.080;9.006;2023-05-10T07:26:28;15.00;99.90
31263;DHT22;17892;52.080;9.006;2023-05-10T07:28:54;14.90;99.90
31263;DHT22;17892;52.080;9.006;2023-05-10T07:31:19;15.00;99.90
31263;DHT22;17892;52.080;9.006;2023-05-10T07:33:45;14.90;99.90
31263;DHT22;17892;52.080;9.006;2023-05-10T07:36:11;14.90;99.90
31263;DHT22;17892;52.080;9.006;2023-05-10T07:38:37;14.90;99.90
31263;DHT22;17892;52.080;9.006;2023-05-10T07:41:02;15.00;99.90
31263;DHT22;17892;52.080;9.006;2023-05-10T07:43:28;15.00;99.90
31263;DHT22;17892;52.080;9.006;2023-05-10T07:45:54;15.00;99.90
31263;DHT22;17892;52.080;9.006;2023-05-10T07:48:19;15.00;99.90
31263;DHT22;17892;52.080;9.006;2023-05-10T07:50:45;15.00;99.90
31263;DHT22;17892;52.080;9.006;2023-05-10T07:53:11;15.00;99.90
31263;DHT22;17892;52.080;9.006;2023-05-10T07:55:36;15.00;99.90
31263;DHT22;17892;52.080;9.006;2023-05-10T07:58:02;15.10;99.90
31263;DHT22;17892;52.080;9.006;2023-05-10T08:00:27;15.10;99.90
31263;DHT22;17892;52.080;9.006;2023-05-10T08:02:53;15.20;99.90
31263;DHT22;17892;52.080;9.006;2023-05-10T08:05:19;15.30;99.90
31263;DHT22;17892;52.080;9.006;2023-05-10T08:07:44;15.50;99.90
31263;DHT22;17892;52.080;9.006;2023-05-10T08:10:10;15.60;99.90
31263;DHT22;17892;52.080;9.006;2023-05-10T08:12:38;15.70;99.90
31263;DHT22;17892;52.080;9.006;2023-05-10T08:15:05;15.80;99.90
31263;DHT22;17892;52.080;9.006;2023-05-10T08:17:31;16.00;99.90
31263;DHT22;17892;52.080;9.006;2023-05-10T08:19:57;16.10;99.90
31263;DHT22;17892;52.080;9.006;2023-05-10T08:22:23;16.20;99.90
31263;DHT22;17892;52.080;9.006;2023-05-10T08:24:48;16.30;99.90
31263;DHT22;17892;52.080;9.006;2023-05-10T08:27:14;16.40;99.90
31263;DHT22;17892;52.080;9.006;2023-05-10T08:29:40;16.50;99.90
31263;DHT22;17892;52.080;9.006;2023-05-10T08:32:05;16.70;99.90
31263;DHT22;17892;52.080;9.006;2023-05-10T08:34:31;16.80;99.90
31263;DHT22;17892;52.080;9.006;2023-05-10T08:36:57;16.90;99.90
31263;DHT22;17892;52.080;9.006;2023-05-10T08:39:22;17.10;99.90
31263;DHT22;17892;52.080;9.006;2023-05-10T08:41:51;17.20;99.90
31263;DHT22;17892;52.080;9.006;2023-05-10T08:44:18;17.30;99.90
31263;DHT22;17892;52.080;9.006;2023-05-10T08:46:46;17.30;99.90
31263;DHT22;17892;52.080;9.006;2023-05-10T08:49:13;17.40;99.90
31263;DHT22;17892;52.080;9.006;2023-05-10T08:51:49;17.50;99.90
31263;DHT22;17892;52.080;9.006;2023-05-10T08:54:16;17.60;99.90
31263;DHT22;17892;52.080;9.006;2023-05-10T08:56:42;17.70;99.90
31263;DHT22;17892;52.080;9.006;2023-05-10T08:59:07;17.80;99.90
31263;DHT22;17892;52.080;9.006;2023-05-10T09:01:35;17.80;99.90
31263;DHT22;17892;52.080;9.006;2023-05-10T09:04:02;17.80;99.90
31263;DHT22;17892;52.080;9.006;2023-05-10T09:06:29;17.70;99.90
31263;DHT22;17892;52.080;9.006;2023-05-10T09:08:55;17.70;99.90
31263;DHT22;17892;52.080;9.006;2023-05-10T09:11:21;17.60;99.90
31263;DHT22;17892;52.080;9.006;2023-05-10T09:13:48;17.60;99.90
31263;DHT22;17892;52.080;9.006;2023-05-10T09:16:16;17.50;99.90
31263;DHT22;17892;52.080;9.006;2023-05-10T09:18:41;17.50;99.90
31263;DHT22;17892;52.080;9.006;2023-05-10T09:21:07;17.50;99.90
31263;DHT22;17892;52.080;9.006;2023-05-10T09:23:33;17.50;99.90
31263;DHT22;17892;52.080;9.006;2023-05-10T09:26:06;17.60;99.90
31263;DHT22;17892;52.080;9.006;2023-05-10T09:31:17;17.70;99.90
31263;DHT22;17892;52.080;9.006;2023-05-10T09:33:47;17.80;99.90
31263;DHT22;17892;52.080;9.006;2023-05-10T09:36:14;17.90;99.90
31263;DHT22;17892;52.080;9.006;2023-05-10T09:38:51;18.10;99.90
31263;DHT22;17892;52.080;9.006;2023-05-10T09:41:22;18.30;99.90
31263;DHT22;17892;52.080;9.006;2023-05-10T09:43:49;18.50;99.90
31263;DHT22;17892;52.080;9.006;2023-05-10T09:46:15;18.70;99.90
31263;DHT22;17892;52.080;9.006;2023-05-10T09:48:45;18.90;99.90
31263;DHT22;17892;52.080;9.006;2023-05-10T09:51:24;19.10;99.90
31263;DHT22;17892;52.080;9.006;2023-05-10T09:54:12;19.40;99.90
31263;DHT22;17892;52.080;9.006;2023-05-10T09:56:39;19.80;99.90
31263;DHT22;17892;52.080;9.006;2023-05-10T09:59:09;20.00;99.90
31263;DHT22;17892;52.080;9.006;2023-05-10T10:01:37;20.40;99.90
31263;DHT22;17892;52.080;9.006;2023-05-10T10:04:05;20.50;99.90
31263;DHT22;17892;52.080;9.006;2023-05-10T10:06:37;20.60;99.90
31263;DHT22;17892;52.080;9.006;2023-05-10T10:09:06;20.50;99.90
31263;DHT22;17892;52.080;9.006;2023-05-10T10:11:35;20.40;99.90
31263;DHT22;17892;52.080;9.006;2023-05-10T10:14:01;20.10;99.90
31263;DHT22;17892;52.080;9.006;2023-05-10T10:16:29;19.80;99.90
31263;DHT22;17892;52.080;9.006;2023-05-10T10:18:55;19.40;99.90
31263;DHT22;17892;52.080;9.006;2023-05-10T10:21:22;19.00;99.90
31263;DHT22;17892;52.080;9.006;2023-05-10T10:23:48;18.70;99.90
31263;DHT22;17892;52.080;9.006;2023-05-10T10:26:15;18.30;99.90
31263;DHT22;17892;52.080;9.006;2023-05-10T10:29:00;18.00;99.90
31263;DHT22;17892;52.080;9.006;2023-05-10T10:31:45;17.60;99.90
31263;DHT22;17892;52.080;9.006;2023-05-10T10:34:31;17.30;99.90
31263;DHT22;17892;52.080;9.006;2023-05-10T10:36:57;17.10;99.90
31263;DHT22;17892;52.080;9.006;2023-05-10T10:39:30;17.00;99.90
31263;DHT22;17892;52.080;9.006;2023-05-10T10:41:57;17.00;99.90
31263;DHT22;17892;52.080;9.006;2023-05-10T10:47:06;17.00;99.90
31263;DHT22;17892;52.080;9.006;2023-05-10T10:57:48;17.60;99.90
31263;DHT22;17892;52.080;9.006;2023-05-10T11:02:58;18.00;99.90
31263;DHT22;17892;52.080;9.006;2023-05-10T11:08:11;18.40;99.90
31263;DHT22;17892;52.080;9.006;2023-05-10T11:10:52;18.60;99.90
31263;DHT22;17892;52.080;9.006;2023-05-10T11:13:32;18.80;99.90
31263;DHT22;17892;52.080;9.006;2023-05-10T11:19:04;19.10;99.90
31263;DHT22;17892;52.080;9.006;2023-05-10T11:21:32;19.40;99.90
31263;DHT22;17892;52.080;9.006;2023-05-10T11:24:00;19.80;99.90
31263;DHT22;17892;52.080;9.006;2023-05-10T11:26:33;20.20;99.90
31263;DHT22;17892;52.080;9.006;2023-05-10T11:28:59;20.60;99.90
31263;DHT22;17892;52.080;9.006;2023-05-10T11:31:27;21.00;99.90
31263;DHT22;17892;52.080;9.006;2023-05-10T11:33:55;21.20;99.90
31263;DHT22;17892;52.080;9.006;2023-05-10T11:36:23;21.60;99.90
31263;DHT22;17892;52.080;9.006;2023-05-10T11:38:51;21.90;99.90
31263;DHT22;17892;52.080;9.006;2023-05-10T11:41:18;22.30;99.90
31263;DHT22;17892;52.080;9.006;2023-05-10T11:43:48;22.50;99.90
31263;DHT22;17892;52.080;9.006;2023-05-10T11:46:19;22.70;99.90
31263;DHT22;17892;52.080;9.006;2023-05-10T11:48:49;22.80;99.90
31263;DHT22;17892;52.080;9.006;2023-05-10T11:51:23;22.90;99.90
31263;DHT22;17892;52.080;9.006;2023-05-10T11:53:52;22.90;99.90
31263;DHT22;17892;52.080;9.006;2023-05-10T11:56:18;22.80;99.90
31263;DHT22;17892;52.080;9.006;2023-05-10T11:58:51;22.90;99.90
31263;DHT22;17892;52.080;9.006;2023-05-10T12:01:18;23.00;99.90
31263;DHT22;17892;52.080;9.006;2023-05-10T12:03:43;23.20;99.90
31263;DHT22;17892;52.080;9.006;2023-05-10T12:06:09;23.60;99.90
31263;DHT22;17892;52.080;9.006;2023-05-10T12:08:35;23.90;99.90
31263;DHT22;17892;52.080;9.006;2023-05-10T12:11:06;24.10;99.90
31263;DHT22;17892;52.080;9.006;2023-05-10T12:13:38;24.30;99.90
31263;DHT22;17892;52.080;9.006;2023-05-10T12:18:45;24.60;99.90
31263;DHT22;17892;52.080;9.006;2023-05-10T12:21:15;24.60;99.90
31263;DHT22;17892;52.080;9.006;2023-05-10T12:23:41;24.50;99.90
31263;DHT22;17892;52.080;9.006;2023-05-10T12:26:09;24.30;99.90
31263;DHT22;17892;52.080;9.006;2023-05-10T12:28:36;24.10;99.60
31263;DHT22;17892;52.080;9.006;2023-05-10T12:31:02;23.80;99.90
31263;DHT22;17892;52.080;9.006;2023-05-10T12:33:36;23.50;99.90
31263;DHT22;17892;52.080;9.006;2023-05-10T12:36:05;23.30;99.60
31263;DHT22;17892;52.080;9.006;2023-05-10T12:38:34;23.10;99.90
31263;DHT22;17892;52.080;9.006;2023-05-10T12:41:04;23.00;99.90
31263;DHT22;17892;52.080;9.006;2023-05-10T12:43:31;23.20;99.90
31263;DHT22;17892;52.080;9.006;2023-05-10T12:45:57;23.50;99.90
31263;DHT22;17892;52.080;9.006;2023-05-10T12:48:23;23.80;99.90
31263;DHT22;17892;52.080;9.006;2023-05-10T12:50:49;24.00;99.90
31263;DHT22;17892;52.080;9.006;2023-05-10T12:53:16;24.10;99.90
31263;DHT22;17892;52.080;9.006;2023-05-10T12:55:42;24.10;99.90
31263;DHT22;17892;52.080;9.006;2023-05-10T12:58:08;24.00;99.00
31263;DHT22;17892;52.080;9.006;2023-05-10T13:00:34;23.80;97.00
31263;DHT22;17892;52.080;9.006;2023-05-10T13:03:00;23.50;97.10
31263;DHT22;17892;52.080;9.006;2023-05-10T13:05:26;23.20;96.80
31263;DHT22;17892;52.080;9.006;2023-05-10T13:07:51;22.90;95.40
31263;DHT22;17892;52.080;9.006;2023-05-10T13:10:17;22.60;95.60
31263;DHT22;17892;52.080;9.006;2023-05-10T13:12:43;22.30;95.50
31263;DHT22;17892;52.080;9.006;2023-05-10T13:15:08;22.00;95.60
31263;DHT22;17892;52.080;9.006;2023-05-10T13:17:34;21.80;96.10
31263;DHT22;17892;52.080;9.006;2023-05-10T13:20:00;21.50;96.20
31263;DHT22;17892;52.080;9.006;2023-05-10T13:22:25;21.30;96.80
31263;DHT22;17892;52.080;9.006;2023-05-10T13:24:51;21.10;97.20
31263;DHT22;17892;52.080;9.006;2023-05-10T13:27:17;20.80;97.20
31263;DHT22;17892;52.080;9.006;2023-05-10T13:29:42;20.60;97.50
31263;DHT22;17892;52.080;9.006;2023-05-10T13:32:08;20.40;97.80
31263;DHT22;17892;52.080;9.006;2023-05-10T13:34:34;20.20;98.30
31263;DHT22;17892;52.080;9.006;2023-05-10T13:37:01;20.00;98.70
31263;DHT22;17892;52.080;9.006;2023-05-10T13:39:26;19.90;99.20
31263;DHT22;17892;52.080;9.006;2023-05-10T13:41:52;19.70;99.60
31263;DHT22;17892;52.080;9.006;2023-05-10T13:44:19;19.70;99.90
31263;DHT22;17892;52.080;9.006;2023-05-10T13:46:45;19.60;99.90
31263;DHT22;17892;52.080;9.006;2023-05-10T13:49:11;19.60;99.90
31263;DHT22;17892;52.080;9.006;2023-05-10T13:51:37;19.70;99.90
31263;DHT22;17892;52.080;9.006;2023-05-10T13:54:03;19.80;99.90
31263;DHT22;17892;52.080;9.006;2023-05-10T13:56:28;20.00;99.90
31263;DHT22;17892;52.080;9.006;2023-05-10T13:58:55;20.10;99.90
31263;DHT22;17892;52.080;9.006;2023-05-10T14:01:22;20.40;99.90
31263;DHT22;17892;52.080;9.006;2023-05-10T14:03:48;20.70;99.90
31263;DHT22;17892;52.080;9.006;2023-05-10T14:06:14;21.00;99.90
31263;DHT22;17892;52.080;9.006;2023-05-10T14:08:39;21.30;99.90
31263;DHT22;17892;52.080;9.006;2023-05-10T14:11:05;21.70;99.90
31263;DHT22;17892;52.080;9.006;2023-05-10T14:13:31;22.20;99.90
31263;DHT22;17892;52.080;9.006;2023-05-10T14:15:56;22.70;99.90
31263;DHT22;17892;52.080;9.006;2023-05-10T14:18:23;23.20;99.90
31263;DHT22;17892;52.080;9.006;2023-05-10T14:20:49;23.90;99.90
31263;DHT22;17892;52.080;9.006;2023-05-10T14:23:15;24.40;99.90
31263;DHT22;17892;52.080;9.006;2023-05-10T14:25:41;25.00;99.90
31263;DHT22;17892;52.080;9.006;2023-05-10T14:28:06;25.40;99.90
31263;DHT22;17892;52.080;9.006;2023-05-10T14:30:33;25.80;99.90
31263;DHT22;17892;52.080;9.006;2023-05-10T14:33:01;26.20;99.90
31263;DHT22;17892;52.080;9.006;2023-05-10T14:35:28;26.40;98.40
31263;DHT22;17892;52.080;9.006;2023-05-10T14:37:56;26.50;94.00
31263;DHT22;17892;52.080;9.006;2023-05-10T14:40:23;26.30;93.40
31263;DHT22;17892;52.080;9.006;2023-05-10T14:42:50;26.10;93.00
31263;DHT22;17892;52.080;9.006;2023-05-10T14:45:15;25.80;92.60
31263;DHT22;17892;52.080;9.006;2023-05-10T14:47:41;25.40;92.80
31263;DHT22;17892;52.080;9.006;2023-05-10T14:50:07;25.00;92.80
31263;DHT22;17892;52.080;9.006;2023-05-10T14:52:33;24.60;91.90
31263;DHT22;17892;52.080;9.006;2023-05-10T14:54:59;24.10;91.30
31263;DHT22;17892;52.080;9.006;2023-05-10T14:57:26;23.60;91.20
31263;DHT22;17892;52.080;9.006;2023-05-10T14:59:55;23.10;91.20
31263;DHT22;17892;52.080;9.006;2023-05-10T15:02:21;22.50;91.30
31263;DHT22;17892;52.080;9.006;2023-05-10T15:04:47;22.00;91.40
31263;DHT22;17892;52.080;9.006;2023-05-10T15:07:13;21.50;91.60
31263;DHT22;17892;52.080;9.006;2023-05-10T15:09:40;21.10;91.90
31263;DHT22;17892;52.080;9.006;2023-05-10T15:12:06;20.60;92.30
31263;DHT22;17892;52.080;9.006;2023-05-10T15:14:32;20.30;92.90
31263;DHT22;17892;52.080;9.006;2023-05-10T15:16:58;20.00;93.70
31263;DHT22;17892;52.080;9.006;2023-05-10T15:19:24;19.50;94.30
31263;DHT22;17892;52.080;9.006;2023-05-10T15:21:50;19.50;94.90
31263;DHT22;17892;52.080;9.006;2023-05-10T15:24:15;19.40;95.50
31263;DHT22;17892;52.080;9.006;2023-05-10T15:26:41;19.30;96.10
31263;DHT22;17892;52.080;9.006;2023-05-10T15:29:07;19.30;96.80
31263;DHT22;17892;52.080;9.006;2023-05-10T15:31:33;19.30;97.20
31263;DHT22;17892;52.080;9.006;2023-05-10T15:34:01;19.40;97.40
31263;DHT22;17892;52.080;9.006;2023-05-10T15:36:27;19.40;97.40
31263;DHT22;17892;52.080;9.006;2023-05-10T15:38:53;19.50;97.60
31263;DHT22;17892;52.080;9.006;2023-05-10T15:41:19;19.60;97.70
31263;DHT22;17892;52.080;9.006;2023-05-10T15:43:45;19.70;97.90
31263;DHT22;17892;52.080;9.006;2023-05-10T15:46:11;19.70;97.80
31263;DHT22;17892;52.080;9.006;2023-05-10T15:48:37;19.80;97.90
31263;DHT22;17892;52.080;9.006;2023-05-10T15:51:04;19.90;97.80
31263;DHT22;17892;52.080;9.006;2023-05-10T15:53:30;19.90;97.70
31263;DHT22;17892;52.080;9.006;2023-05-10T15:55:56;19.90;97.80
31263;DHT22;17892;52.080;9.006;2023-05-10T15:58:21;20.00;97.90
31263;DHT22;17892;52.080;9.006;2023-05-10T16:00:47;20.10;97.90
31263;DHT22;17892;52.080;9.006;2023-05-10T16:03:13;20.00;97.50
31263;DHT22;17892;52.080;9.006;2023-05-10T16:05:38;20.00;97.50
31263;DHT22;17892;52.080;9.006;2023-05-10T16:08:04;20.00;97.60
31263;DHT22;17892;52.080;9.006;2023-05-10T16:10:33;20.00;97.70